createdAt,value
2017-02-03T00:00:56.956Z,0
2017-02-03T00:02:05.668Z,0
2017-02-03T00:03:14.350Z,0
2017-02-03T00:04:23.833Z,0
2017-02-03T00:05:32.545Z,0
2017-02-03T00:06:41.635Z,0
2017-02-03T00:07:50.324Z,0
2017-02-03T00:08:59.029Z,0
2017-02-03T00:10:07.726Z,0
2017-02-03T00:11:16.412Z,0
2017-02-03T00:12:25.124Z,0
2017-02-03T00:13:33.822Z,0
2017-02-03T00:14:42.516Z,0
2017-02-03T00:15:51.197Z,0
2017-02-03T00:17:00.670Z,0
2017-02-03T00:18:09.785Z,0
2017-02-03T00:19:18.479Z,0
2017-02-03T00:20:27.952Z,0
2017-02-03T00:21:36.660Z,0
2017-02-03T00:22:45.362Z,0
2017-02-03T00:23:54.050Z,0
2017-02-03T00:25:03.548Z,0
2017-02-03T00:26:12.652Z,0
2017-02-03T00:27:21.330Z,0
2017-02-03T00:28:30.430Z,0
2017-02-03T00:29:39.118Z,0
2017-02-03T00:30:48.211Z,0
2017-02-03T00:31:56.908Z,0
2017-02-03T00:33:05.599Z,0
2017-02-03T00:34:14.309Z,0
2017-02-03T00:35:23.015Z,0
2017-02-03T00:36:31.700Z,0
2017-02-03T00:37:40.390Z,0
2017-02-03T00:38:49.090Z,0
2017-02-03T00:39:57.778Z,0
2017-02-03T00:41:06.479Z,0
2017-02-03T00:42:15.190Z,0
2017-02-03T00:43:24.265Z,0
2017-02-03T00:44:32.961Z,0
2017-02-03T00:45:41.662Z,0
2017-02-03T00:46:50.351Z,0
2017-02-03T00:47:59.030Z,0
2017-02-03T00:49:08.126Z,0
2017-02-03T00:50:17.223Z,0
2017-02-03T00:51:26.696Z,0
2017-02-03T00:52:35.396Z,0
2017-02-03T00:53:44.488Z,0
2017-02-03T00:54:53.576Z,0
2017-02-03T00:56:02.700Z,0
2017-02-03T00:57:11.412Z,0
2017-02-03T00:58:20.125Z,0
2017-02-03T00:59:29.217Z,0
2017-02-03T01:00:37.907Z,0
2017-02-03T01:01:46.650Z,0
2017-02-03T01:02:55.349Z,0
2017-02-03T01:04:04.432Z,0
2017-02-03T01:05:13.134Z,0
2017-02-03T01:06:21.835Z,0
2017-02-03T01:07:30.913Z,0
2017-02-03T01:08:39.609Z,0
2017-02-03T01:09:48.314Z,0
2017-02-03T01:10:57.401Z,0
2017-02-03T01:12:06.085Z,0
2017-02-03T01:13:14.797Z,0
2017-02-03T01:14:23.502Z,0
2017-02-03T01:15:32.212Z,0
2017-02-03T01:16:40.894Z,0
2017-02-03T01:17:49.594Z,0
2017-02-03T01:18:58.693Z,0
2017-02-03T01:20:07.813Z,0
2017-02-03T01:21:16.555Z,0
2017-02-03T01:22:26.047Z,0
2017-02-03T01:23:34.744Z,0
2017-02-03T01:24:43.426Z,0
2017-02-03T01:25:52.532Z,0
2017-02-03T01:27:01.230Z,0
2017-02-03T01:28:09.923Z,0
2017-02-03T01:29:19.007Z,0
2017-02-03T01:30:27.698Z,0
2017-02-03T01:31:36.408Z,0
2017-02-03T01:32:45.490Z,0
2017-02-03T01:33:54.184Z,0
2017-02-03T01:35:02.888Z,0
2017-02-03T01:36:11.583Z,0
2017-02-03T01:37:20.273Z,0
2017-02-03T01:38:28.971Z,0
2017-02-03T01:39:37.678Z,0
2017-02-03T01:40:46.350Z,0
2017-02-03T01:41:55.051Z,0
2017-02-03T01:43:03.747Z,0
2017-02-03T01:44:12.449Z,0
2017-02-03T01:45:21.144Z,0
2017-02-03T01:46:29.823Z,0
2017-02-03T01:47:38.528Z,0
2017-02-03T01:48:47.240Z,0
2017-02-03T01:49:55.921Z,0
2017-02-03T01:51:04.623Z,0
2017-02-03T01:52:13.734Z,0
2017-02-03T01:53:22.421Z,0
2017-02-03T01:54:31.505Z,0
2017-02-03T01:55:40.214Z,0
2017-02-03T01:56:48.939Z,0
2017-02-03T01:57:57.639Z,0
2017-02-03T01:59:06.336Z,0
2017-02-03T02:00:15.420Z,0
2017-02-03T02:01:24.131Z,0
2017-02-03T02:02:33.206Z,0
2017-02-03T02:03:41.896Z,0
2017-02-03T02:04:51.001Z,0
2017-02-03T02:06:00.084Z,0
2017-02-03T02:07:08.771Z,0
2017-02-03T02:08:17.477Z,0
2017-02-03T02:09:26.161Z,0
2017-02-03T02:10:35.231Z,0
2017-02-03T02:11:43.935Z,0
2017-02-03T02:12:52.633Z,0
2017-02-03T02:14:01.333Z,0
2017-02-03T02:15:10.817Z,0
2017-02-03T02:16:19.497Z,0
2017-02-03T02:17:28.205Z,0
2017-02-03T02:18:37.700Z,0
2017-02-03T02:19:46.381Z,0
2017-02-03T02:20:55.095Z,0
2017-02-03T02:22:03.789Z,0
2017-02-03T02:23:12.867Z,0
2017-02-03T02:24:21.962Z,0
2017-02-03T02:25:30.666Z,0
2017-02-03T02:26:39.355Z,0
2017-02-03T02:27:48.043Z,0
2017-02-03T02:28:56.736Z,0
2017-02-03T02:30:05.834Z,0
2017-02-03T02:31:14.535Z,0
2017-02-03T02:32:24.008Z,0
2017-02-03T02:33:33.105Z,0
2017-02-03T02:34:42.604Z,0
2017-02-03T02:35:51.690Z,0
2017-02-03T02:37:00.378Z,0
2017-02-03T02:38:09.076Z,0
2017-02-03T02:39:18.544Z,0
2017-02-03T02:40:27.234Z,0
2017-02-03T02:41:35.936Z,0
2017-02-03T02:42:44.632Z,0
2017-02-03T02:43:53.727Z,0
2017-02-03T02:45:02.861Z,0
2017-02-03T02:46:11.944Z,0
2017-02-03T02:47:20.623Z,0
2017-02-03T02:48:29.330Z,0
2017-02-03T02:49:38.022Z,0
2017-02-03T02:50:47.132Z,0
2017-02-03T02:51:56.624Z,0
2017-02-03T02:53:05.333Z,0
2017-02-03T02:54:14.411Z,0
2017-02-03T02:55:23.102Z,0
2017-02-03T02:56:31.794Z,0
2017-02-03T02:57:40.520Z,0
2017-02-03T02:58:49.224Z,0
2017-02-03T02:59:58.300Z,0
2017-02-03T03:01:07.006Z,0
2017-02-03T03:02:15.709Z,0
2017-02-03T03:03:25.577Z,0
2017-02-03T03:04:34.268Z,0
2017-02-03T03:05:42.970Z,0
2017-02-03T03:06:52.451Z,0
2017-02-03T03:08:01.537Z,0
2017-02-03T03:09:11.035Z,0
2017-02-03T03:10:19.759Z,0
2017-02-03T03:11:28.454Z,0
2017-02-03T03:12:37.144Z,0
2017-02-03T03:13:46.251Z,0
2017-02-03T03:14:55.357Z,0
2017-02-03T03:16:04.431Z,0
2017-02-03T03:17:13.117Z,0
2017-02-03T03:18:21.829Z,0
2017-02-03T03:19:30.512Z,0
2017-02-03T03:20:39.204Z,0
2017-02-03T03:21:48.300Z,0
2017-02-03T03:22:57.402Z,0
2017-02-03T03:24:06.095Z,0
2017-02-03T03:25:14.803Z,0
2017-02-03T03:26:23.896Z,0
2017-02-03T03:27:32.997Z,0
2017-02-03T03:28:42.083Z,0
2017-02-03T03:29:51.161Z,0
2017-02-03T03:30:59.873Z,0
2017-02-03T03:32:08.565Z,0
2017-02-03T03:33:18.033Z,0
2017-02-03T03:34:26.735Z,0
2017-02-03T03:35:35.437Z,0
2017-02-03T03:36:44.508Z,0
2017-02-03T03:37:53.599Z,0
2017-02-03T03:39:02.290Z,0
2017-02-03T03:40:10.979Z,0
2017-02-03T03:41:19.669Z,0
2017-02-03T03:42:28.348Z,0
2017-02-03T03:43:37.053Z,0
2017-02-03T03:44:46.177Z,0
2017-02-03T03:45:54.860Z,0
2017-02-03T03:47:03.567Z,0
2017-02-03T03:48:12.690Z,0
2017-02-03T03:49:21.366Z,0
2017-02-03T03:50:30.062Z,0
2017-02-03T03:51:38.770Z,0
2017-02-03T03:52:47.855Z,0
2017-02-03T03:53:56.546Z,0
2017-02-03T03:55:05.627Z,0
2017-02-03T03:56:14.726Z,0
2017-02-03T03:57:23.826Z,0
2017-02-03T03:58:32.511Z,0
2017-02-03T03:59:41.207Z,0
2017-02-03T04:00:50.303Z,0
2017-02-03T04:01:58.982Z,0
2017-02-03T04:03:07.672Z,0
2017-02-03T04:04:16.380Z,0
2017-02-03T04:05:25.060Z,0
2017-02-03T04:06:34.149Z,0
2017-02-03T04:07:42.852Z,0
2017-02-03T04:08:51.548Z,0
2017-02-03T04:10:00.252Z,0
2017-02-03T04:11:08.935Z,0
2017-02-03T04:12:18.415Z,0
2017-02-03T04:13:27.122Z,0
2017-02-03T04:14:35.817Z,0
2017-02-03T04:15:44.515Z,0
2017-02-03T04:16:53.216Z,0
2017-02-03T04:18:01.912Z,0
2017-02-03T04:19:10.982Z,0
2017-02-03T04:20:19.696Z,0
2017-02-03T04:21:28.779Z,0
2017-02-03T04:22:37.864Z,0
2017-02-03T04:23:46.571Z,0
2017-02-03T04:24:55.404Z,0
2017-02-03T04:26:04.118Z,0
2017-02-03T04:27:13.214Z,0
2017-02-03T04:28:22.291Z,0
2017-02-03T04:29:31.006Z,0
2017-02-03T04:30:39.705Z,0
2017-02-03T04:31:48.778Z,0
2017-02-03T04:32:57.488Z,0
2017-02-03T04:34:06.588Z,0
2017-02-03T04:35:15.268Z,0
2017-02-03T04:36:24.360Z,0
2017-02-03T04:37:33.459Z,0
2017-02-03T04:38:42.537Z,0
2017-02-03T04:39:51.234Z,0
2017-02-03T04:40:59.933Z,0
2017-02-03T04:42:08.621Z,0
2017-02-03T04:43:17.318Z,0
2017-02-03T04:44:26.420Z,0
2017-02-03T04:45:35.108Z,0
2017-02-03T04:46:44.183Z,0
2017-02-03T04:47:52.891Z,0
2017-02-03T04:49:01.592Z,0
2017-02-03T04:50:10.672Z,0
2017-02-03T04:51:19.764Z,0
2017-02-03T04:52:29.250Z,0
2017-02-03T04:53:37.949Z,0
2017-02-03T04:54:46.631Z,0
2017-02-03T04:55:55.335Z,0
2017-02-03T04:57:04.053Z,0
2017-02-03T04:58:13.149Z,0
2017-02-03T04:59:22.619Z,0
2017-02-03T05:00:31.332Z,0
2017-02-03T05:01:40.440Z,0
2017-02-03T05:02:49.115Z,0
2017-02-03T05:03:57.812Z,0
2017-02-03T05:05:06.908Z,0
2017-02-03T05:06:15.595Z,0
2017-02-03T05:07:24.680Z,0
2017-02-03T05:08:33.366Z,0
2017-02-03T05:09:42.063Z,0
2017-02-03T05:10:50.757Z,0
2017-02-03T05:11:59.435Z,0
2017-02-03T05:13:08.126Z,0
2017-02-03T05:14:16.836Z,0
2017-02-03T05:15:25.518Z,0
2017-02-03T05:16:34.208Z,0
2017-02-03T05:17:43.318Z,0
2017-02-03T05:18:52.406Z,0
2017-02-03T05:20:01.101Z,0
2017-02-03T05:21:09.807Z,0
2017-02-03T05:22:18.888Z,0
2017-02-03T05:23:27.993Z,0
2017-02-03T05:24:36.672Z,0
2017-02-03T05:25:45.757Z,0
2017-02-03T05:26:54.471Z,0
2017-02-03T05:28:03.553Z,0
2017-02-03T05:29:12.234Z,0
2017-02-03T05:30:20.948Z,0
2017-02-03T05:31:29.644Z,0
2017-02-03T05:32:38.319Z,0
2017-02-03T05:33:47.029Z,0
2017-02-03T05:34:55.723Z,0
2017-02-03T05:36:04.806Z,0
2017-02-03T05:37:13.508Z,0
2017-02-03T05:38:22.195Z,0
2017-02-03T05:39:30.908Z,0
2017-02-03T05:40:39.595Z,0
2017-02-03T05:41:48.283Z,0
2017-02-03T05:42:57.772Z,0
2017-02-03T05:44:06.475Z,0
2017-02-03T05:45:15.557Z,0
2017-02-03T05:46:24.269Z,0
2017-02-03T05:47:32.962Z,0
2017-02-03T05:48:41.642Z,0
2017-02-03T05:49:50.734Z,0
2017-02-03T05:50:59.836Z,0
2017-02-03T05:52:09.312Z,0
2017-02-03T05:53:18.011Z,0
2017-02-03T05:54:27.087Z,0
2017-02-03T05:55:35.787Z,0
2017-02-03T05:56:44.884Z,0
2017-02-03T05:57:53.579Z,0
2017-02-03T05:59:02.278Z,0
2017-02-03T06:00:11.389Z,0
2017-02-03T06:01:20.072Z,0
2017-02-03T06:02:28.761Z,0
2017-02-03T06:03:37.476Z,0
2017-02-03T06:04:47.407Z,0
2017-02-03T06:05:56.498Z,0
2017-02-03T06:07:05.201Z,0
2017-02-03T06:08:13.897Z,0
2017-02-03T06:09:22.612Z,0
2017-02-03T06:10:32.079Z,0
2017-02-03T06:11:40.778Z,0
2017-02-03T06:12:49.879Z,0
2017-02-03T06:13:58.572Z,0
2017-02-03T06:15:07.649Z,0
2017-02-03T06:16:16.761Z,0
2017-02-03T06:17:25.451Z,0
2017-02-03T06:18:34.133Z,0
2017-02-03T06:19:42.847Z,0
2017-02-03T06:20:51.946Z,0
2017-02-03T06:22:00.651Z,0
2017-02-03T06:23:09.734Z,0
2017-02-03T06:24:18.806Z,0
2017-02-03T06:25:27.517Z,0
2017-02-03T06:26:36.605Z,0
2017-02-03T06:27:45.314Z,0
2017-02-03T06:28:54.416Z,0
2017-02-03T06:30:03.115Z,0
2017-02-03T06:31:11.801Z,0
2017-02-03T06:32:20.505Z,0
2017-02-03T06:33:29.216Z,0
2017-02-03T06:34:38.300Z,0
2017-02-03T06:35:47.002Z,0
2017-02-03T06:36:55.719Z,0
2017-02-03T06:38:04.397Z,0
2017-02-03T06:39:13.089Z,0
2017-02-03T06:40:21.792Z,0
2017-02-03T06:41:30.485Z,0
2017-02-03T06:42:39.573Z,0
2017-02-03T06:43:48.676Z,0
2017-02-03T06:44:57.773Z,0
2017-02-03T06:46:06.464Z,0
2017-02-03T06:47:15.169Z,0
2017-02-03T06:48:23.900Z,0
2017-02-03T06:49:32.591Z,0
2017-02-03T06:50:42.085Z,0
2017-02-03T06:51:50.770Z,0
2017-02-03T06:52:59.486Z,0
2017-02-03T06:54:08.174Z,0
2017-02-03T06:55:17.251Z,0
2017-02-03T06:56:25.956Z,0
2017-02-03T06:57:35.050Z,0
2017-02-03T06:58:44.124Z,0
2017-02-03T06:59:52.821Z,0
2017-02-03T07:01:01.528Z,0
2017-02-03T07:02:10.214Z,0
2017-02-03T07:03:18.910Z,0
2017-02-03T07:04:27.612Z,0
2017-02-03T07:05:36.298Z,0
2017-02-03T07:06:45.405Z,0
2017-02-03T07:07:54.088Z,0
2017-02-03T07:09:02.786Z,0
2017-02-03T07:10:11.881Z,0
2017-02-03T07:11:20.602Z,0
2017-02-03T07:12:29.699Z,0
2017-02-03T07:13:38.404Z,0
2017-02-03T07:14:47.082Z,0
2017-02-03T07:15:55.781Z,5
2017-02-03T07:17:04.481Z,5
2017-02-03T07:18:13.167Z,5
2017-02-03T07:19:22.258Z,5
2017-02-03T07:20:30.955Z,5
2017-02-03T07:21:39.650Z,5
2017-02-03T07:22:48.364Z,5
2017-02-03T07:23:57.865Z,5
2017-02-03T07:25:06.964Z,5
2017-02-03T07:26:15.664Z,5
2017-02-03T07:27:24.359Z,5
2017-02-03T07:28:33.440Z,10
2017-02-03T07:29:42.157Z,10
2017-02-03T07:30:51.256Z,10
2017-02-03T07:31:59.946Z,10
2017-02-03T07:33:08.651Z,10
2017-02-03T07:34:17.342Z,10
2017-02-03T07:35:26.422Z,10
2017-02-03T07:36:35.511Z,10
2017-02-03T07:37:44.590Z,15
2017-02-03T07:38:53.296Z,15
2017-02-03T07:40:01.983Z,15
2017-02-03T07:41:10.670Z,15
2017-02-03T07:42:19.370Z,15
2017-02-03T07:43:28.069Z,20
2017-02-03T07:44:37.165Z,20
2017-02-03T07:45:45.859Z,20
2017-02-03T07:46:54.563Z,25
2017-02-03T07:48:03.242Z,25
2017-02-03T07:49:12.346Z,25
2017-02-03T07:50:21.035Z,20
2017-02-03T07:51:29.744Z,20
2017-02-03T07:52:38.838Z,20
2017-02-03T07:53:47.913Z,20
2017-02-03T07:54:56.609Z,25
2017-02-03T07:56:05.317Z,25
2017-02-03T07:57:14.007Z,30
2017-02-03T07:58:23.099Z,30
2017-02-03T07:59:32.598Z,30
2017-02-03T08:00:41.283Z,35
2017-02-03T08:01:49.987Z,35
2017-02-03T08:02:59.495Z,40
2017-02-03T08:04:08.183Z,40
2017-02-03T08:05:17.281Z,40
2017-02-03T08:06:26.760Z,40
2017-02-03T08:07:35.866Z,40
2017-02-03T08:08:44.568Z,40
2017-02-03T08:09:53.645Z,40
2017-02-03T08:11:02.335Z,35
2017-02-03T08:12:11.439Z,30
2017-02-03T08:13:20.129Z,30
2017-02-03T08:14:28.847Z,30
2017-02-03T08:15:37.556Z,30
2017-02-03T08:16:46.259Z,30
2017-02-03T08:17:54.939Z,30
2017-02-03T08:19:04.051Z,30
2017-02-03T08:20:12.758Z,30
2017-02-03T08:21:21.464Z,30
2017-02-03T08:22:30.551Z,30
2017-02-03T08:23:39.245Z,30
2017-02-03T08:24:47.950Z,30
2017-02-03T08:25:56.651Z,35
2017-02-03T08:27:05.343Z,35
2017-02-03T08:28:14.054Z,35
2017-02-03T08:29:23.145Z,35
2017-02-03T08:30:32.231Z,35
2017-02-03T08:31:40.945Z,35
2017-02-03T08:32:49.658Z,40
2017-02-03T08:33:58.338Z,40
2017-02-03T08:35:07.436Z,50
2017-02-03T08:36:16.137Z,50
2017-02-03T08:37:25.218Z,55
2017-02-03T08:38:34.321Z,55
2017-02-03T08:39:43.037Z,50
2017-02-03T08:40:51.719Z,55
2017-02-03T08:42:00.418Z,60
2017-02-03T08:43:09.513Z,65
2017-02-03T08:44:19.005Z,65
2017-02-03T08:45:28.077Z,65
2017-02-03T08:46:37.222Z,70
2017-02-03T08:47:46.747Z,70
2017-02-03T08:48:55.442Z,65
2017-02-03T08:50:04.529Z,55
2017-02-03T08:51:13.223Z,55
2017-02-03T08:52:22.336Z,55
2017-02-03T08:53:31.419Z,55
2017-02-03T08:54:40.104Z,55
2017-02-03T08:55:48.807Z,55
2017-02-03T08:56:57.508Z,55
2017-02-03T08:58:06.202Z,55
2017-02-03T08:59:14.909Z,55
2017-02-03T09:00:23.624Z,55
2017-02-03T09:01:32.305Z,60
2017-02-03T09:02:41.009Z,60
2017-02-03T09:03:49.703Z,65
2017-02-03T09:04:58.412Z,70
2017-02-03T09:06:07.913Z,70
2017-02-03T09:07:16.990Z,75
2017-02-03T09:08:26.101Z,80
2017-02-03T09:09:34.841Z,85
2017-02-03T09:10:44.320Z,90
2017-02-03T09:11:53.418Z,90
2017-02-03T09:13:02.159Z,90
2017-02-03T09:14:11.242Z,85
2017-02-03T09:15:19.933Z,85
2017-02-03T09:16:29.052Z,90
2017-02-03T09:17:37.752Z,95
2017-02-03T09:18:46.460Z,110
2017-02-03T09:19:55.541Z,120
2017-02-03T09:21:04.243Z,125
2017-02-03T09:22:12.950Z,125
2017-02-03T09:23:22.419Z,120
2017-02-03T09:24:31.133Z,110
2017-02-03T09:25:39.849Z,105
2017-02-03T09:26:48.538Z,100
2017-02-03T09:27:57.234Z,95
2017-02-03T09:29:05.937Z,90
2017-02-03T09:30:14.638Z,85
2017-02-03T09:31:23.321Z,80
2017-02-03T09:32:32.041Z,80
2017-02-03T09:33:40.765Z,85
2017-02-03T09:34:49.462Z,90
2017-02-03T09:35:58.165Z,90
2017-02-03T09:37:07.271Z,85
2017-02-03T09:38:15.955Z,85
2017-02-03T09:39:24.664Z,90
2017-02-03T09:40:33.785Z,85
2017-02-03T09:41:42.471Z,85
2017-02-03T09:42:51.180Z,95
2017-02-03T09:43:59.886Z,95
2017-02-03T09:45:08.984Z,90
2017-02-03T09:46:18.063Z,90
2017-02-03T09:47:27.169Z,95
2017-02-03T09:48:36.268Z,100
2017-02-03T09:49:45.002Z,95
2017-02-03T09:50:53.696Z,85
2017-02-03T09:52:02.401Z,80
2017-02-03T09:53:11.117Z,85
2017-02-03T09:54:19.811Z,85
2017-02-03T09:55:28.535Z,80
2017-02-03T09:56:37.245Z,75
2017-02-03T09:57:46.336Z,70
2017-02-03T09:58:55.021Z,70
2017-02-03T10:00:03.741Z,70
2017-02-03T10:01:12.443Z,70
2017-02-03T10:02:21.138Z,65
2017-02-03T10:03:29.831Z,65
2017-02-03T10:04:38.522Z,65
2017-02-03T10:05:47.634Z,70
2017-02-03T10:06:56.341Z,75
2017-02-03T10:08:05.041Z,75
2017-02-03T10:09:13.756Z,75
2017-02-03T10:10:22.458Z,75
2017-02-03T10:11:31.156Z,80
2017-02-03T10:12:39.861Z,85
2017-02-03T10:13:48.573Z,90
2017-02-03T10:14:57.643Z,95
2017-02-03T10:16:06.839Z,100
2017-02-03T10:17:15.557Z,100
2017-02-03T10:18:24.261Z,105
2017-02-03T10:19:33.368Z,105
2017-02-03T10:20:42.055Z,105
2017-02-03T10:21:51.160Z,110
2017-02-03T10:22:59.860Z,115
2017-02-03T10:24:08.947Z,120
2017-02-03T10:25:17.645Z,120
2017-02-03T10:26:26.384Z,125
2017-02-03T10:27:35.080Z,130
2017-02-03T10:28:43.783Z,135
2017-02-03T10:29:52.898Z,140
2017-02-03T10:31:01.586Z,145
2017-02-03T10:32:10.276Z,150
2017-02-03T10:33:19.781Z,145
2017-02-03T10:34:28.863Z,140
2017-02-03T10:35:37.545Z,135
2017-02-03T10:36:46.253Z,135
2017-02-03T10:37:54.961Z,135
2017-02-03T10:39:04.445Z,135
2017-02-03T10:40:13.153Z,135
2017-02-03T10:41:21.851Z,130
2017-02-03T10:42:30.571Z,120
2017-02-03T10:43:39.277Z,120
2017-02-03T10:44:47.996Z,120
2017-02-03T10:45:57.082Z,120
2017-02-03T10:47:06.193Z,120
2017-02-03T10:48:15.270Z,130
2017-02-03T10:49:23.974Z,135
2017-02-03T10:50:32.683Z,130
2017-02-03T10:51:41.767Z,130
2017-02-03T10:52:50.862Z,125
2017-02-03T10:53:59.575Z,125
2017-02-03T10:55:08.269Z,130
2017-02-03T10:56:16.968Z,130
2017-02-03T10:57:26.075Z,125
2017-02-03T10:58:34.769Z,120
2017-02-03T10:59:43.464Z,115
2017-02-03T11:00:52.573Z,110
2017-02-03T11:02:01.303Z,110
2017-02-03T11:03:10.415Z,115
2017-02-03T11:04:19.488Z,120
2017-02-03T11:05:28.181Z,125
2017-02-03T11:06:36.894Z,130
2017-02-03T11:07:46.370Z,135
2017-02-03T11:08:55.071Z,135
2017-02-03T11:10:04.576Z,130
2017-02-03T11:11:13.710Z,120
2017-02-03T11:12:22.390Z,105
2017-02-03T11:13:31.505Z,95
2017-02-03T11:14:40.208Z,80
2017-02-03T11:15:49.307Z,70
2017-02-03T11:16:58.157Z,75
2017-02-03T11:18:06.842Z,85
2017-02-03T11:19:15.956Z,90
2017-02-03T11:20:24.651Z,95
2017-02-03T11:21:33.355Z,100
2017-02-03T11:22:42.062Z,100
2017-02-03T11:23:50.763Z,100
2017-02-03T11:24:59.453Z,100
2017-02-03T11:26:08.944Z,100
2017-02-03T11:27:17.657Z,100
2017-02-03T11:28:26.335Z,95
2017-02-03T11:29:35.038Z,95
2017-02-03T11:30:44.129Z,95
2017-02-03T11:31:52.840Z,95
2017-02-03T11:33:01.945Z,95
2017-02-03T11:34:10.631Z,95
2017-02-03T11:35:19.339Z,95
2017-02-03T11:36:28.034Z,95
2017-02-03T11:37:36.723Z,90
2017-02-03T11:38:45.489Z,90
2017-02-03T11:39:54.202Z,90
2017-02-03T11:41:02.884Z,95
2017-02-03T11:42:11.590Z,100
2017-02-03T11:43:20.696Z,105
2017-02-03T11:44:29.384Z,110
2017-02-03T11:45:38.099Z,110
2017-02-03T11:46:46.785Z,115
2017-02-03T11:47:55.874Z,120
2017-02-03T11:49:04.588Z,120
2017-02-03T11:50:13.278Z,125
2017-02-03T11:51:21.977Z,125
2017-02-03T11:52:30.683Z,130
2017-02-03T11:53:39.374Z,135
2017-02-03T11:54:48.063Z,140
2017-02-03T11:55:56.768Z,145
2017-02-03T11:57:05.871Z,145
2017-02-03T11:58:14.953Z,145
2017-02-03T11:59:24.095Z,150
2017-02-03T12:00:32.795Z,155
2017-02-03T12:01:41.906Z,155
2017-02-03T12:02:50.597Z,160
2017-02-03T12:04:00.080Z,160
2017-02-03T12:05:08.817Z,160
2017-02-03T12:06:18.305Z,155
2017-02-03T12:07:26.991Z,155
2017-02-03T12:08:35.697Z,150
2017-02-03T12:09:44.795Z,145
2017-02-03T12:10:53.478Z,140
2017-02-03T12:12:02.188Z,130
2017-02-03T12:13:11.286Z,125
2017-02-03T12:14:19.989Z,120
2017-02-03T12:15:29.077Z,120
2017-02-03T12:16:37.757Z,115
2017-02-03T12:17:46.472Z,115
2017-02-03T12:18:55.177Z,115
2017-02-03T12:20:04.267Z,110
2017-02-03T12:21:12.967Z,110
2017-02-03T12:22:22.082Z,110
2017-02-03T12:23:30.779Z,110
2017-02-03T12:24:39.482Z,105
2017-02-03T12:25:48.192Z,105
2017-02-03T12:26:57.006Z,105
2017-02-03T12:28:05.717Z,105
2017-02-03T12:29:14.442Z,105
2017-02-03T12:30:23.129Z,105
2017-02-03T12:31:31.814Z,105
2017-02-03T12:32:40.930Z,105
2017-02-03T12:33:50.018Z,110
2017-02-03T12:34:58.712Z,110
2017-02-03T12:36:07.813Z,115
2017-02-03T12:37:16.519Z,115
2017-02-03T12:38:25.594Z,120
2017-02-03T12:39:34.306Z,120
2017-02-03T12:40:43.406Z,120
2017-02-03T12:41:52.486Z,125
2017-02-03T12:43:01.581Z,130
2017-02-03T12:44:10.659Z,130
2017-02-03T12:45:19.774Z,130
2017-02-03T12:46:28.486Z,135
2017-02-03T12:47:37.174Z,140
2017-02-03T12:48:46.278Z,145
2017-02-03T12:49:55.117Z,145
2017-02-03T12:51:03.974Z,140
2017-02-03T12:52:13.089Z,130
2017-02-03T12:53:22.592Z,125
2017-02-03T12:54:31.291Z,115
2017-02-03T12:55:39.986Z,105
2017-02-03T12:56:49.092Z,105
2017-02-03T12:57:58.191Z,110
2017-02-03T12:59:06.904Z,110
2017-02-03T13:00:15.979Z,105
2017-02-03T13:01:24.683Z,110
2017-02-03T13:02:33.396Z,115
2017-02-03T13:03:42.092Z,120
2017-02-03T13:04:51.189Z,125
2017-02-03T13:05:59.901Z,125
2017-02-03T13:07:09.389Z,125
2017-02-03T13:08:18.905Z,125
2017-02-03T13:09:28.006Z,125
2017-02-03T13:10:36.713Z,125
2017-02-03T13:11:45.418Z,125
2017-02-03T13:12:54.516Z,125
2017-02-03T13:14:04.005Z,125
2017-02-03T13:15:12.731Z,120
2017-02-03T13:16:21.417Z,120
2017-02-03T13:17:30.121Z,115
2017-02-03T13:18:38.829Z,115
2017-02-03T13:19:47.532Z,115
2017-02-03T13:20:56.211Z,120
2017-02-03T13:22:04.927Z,120
2017-02-03T13:23:14.421Z,120
2017-02-03T13:24:23.114Z,125
2017-02-03T13:25:31.816Z,125
2017-02-03T13:26:41.353Z,130
2017-02-03T13:27:50.055Z,130
2017-02-03T13:28:58.760Z,135
2017-02-03T13:30:07.459Z,125
2017-02-03T13:31:16.173Z,120
2017-02-03T13:32:24.879Z,120
2017-02-03T13:33:33.571Z,120
2017-02-03T13:34:42.274Z,115
2017-02-03T13:35:51.377Z,115
2017-02-03T13:37:00.061Z,115
2017-02-03T13:38:08.767Z,115
2017-02-03T13:39:17.476Z,115
2017-02-03T13:40:26.563Z,115
2017-02-03T13:41:35.265Z,115
2017-02-03T13:42:43.956Z,115
2017-02-03T13:43:52.669Z,115
2017-02-03T13:45:01.373Z,115
2017-02-03T13:46:10.459Z,115
2017-02-03T13:47:19.565Z,115
2017-02-03T13:48:28.271Z,115
2017-02-03T13:49:36.970Z,115
2017-02-03T13:50:46.086Z,115
2017-02-03T13:51:54.805Z,115
2017-02-03T13:53:04.288Z,115
2017-02-03T13:54:13.383Z,115
2017-02-03T13:55:22.087Z,115
2017-02-03T13:56:30.778Z,120
2017-02-03T13:57:39.487Z,120
2017-02-03T13:58:48.570Z,125
2017-02-03T13:59:57.262Z,130
2017-02-03T14:01:05.971Z,130
2017-02-03T14:02:14.674Z,130
2017-02-03T14:03:23.402Z,130
2017-02-03T14:04:32.911Z,130
2017-02-03T14:05:42.010Z,135
2017-02-03T14:06:50.696Z,140
2017-02-03T14:07:59.411Z,140
2017-02-03T14:09:08.116Z,150
2017-02-03T14:10:16.814Z,155
2017-02-03T14:11:25.530Z,155
2017-02-03T14:12:34.224Z,160
2017-02-03T14:13:42.929Z,165
2017-02-03T14:14:51.670Z,170
2017-02-03T14:16:00.354Z,175
2017-02-03T14:17:09.060Z,180
2017-02-03T14:18:18.160Z,185
2017-02-03T14:19:26.844Z,190
2017-02-03T14:20:35.552Z,190
2017-02-03T14:21:44.270Z,195
2017-02-03T14:22:52.959Z,185
2017-02-03T14:24:02.054Z,195
2017-02-03T14:25:11.164Z,190
2017-02-03T14:26:19.857Z,195
2017-02-03T14:27:28.949Z,200
2017-02-03T14:28:37.662Z,205
2017-02-03T14:29:46.758Z,215
2017-02-03T14:30:55.844Z,210
2017-02-03T14:32:04.555Z,205
2017-02-03T14:33:13.647Z,205
2017-02-03T14:34:22.327Z,200
2017-02-03T14:35:31.042Z,195
2017-02-03T14:36:40.144Z,190
2017-02-03T14:37:49.225Z,180
2017-02-03T14:38:57.931Z,175
2017-02-03T14:40:06.632Z,160
2017-02-03T14:41:15.336Z,150
2017-02-03T14:42:24.035Z,135
2017-02-03T14:43:33.111Z,120
2017-02-03T14:44:41.821Z,105
2017-02-03T14:45:50.524Z,100
2017-02-03T14:46:59.217Z,95
2017-02-03T14:48:07.928Z,85
2017-02-03T14:49:16.646Z,75
2017-02-03T14:50:25.326Z,75
2017-02-03T14:51:34.434Z,75
2017-02-03T14:52:43.153Z,75
2017-02-03T14:53:51.846Z,75
2017-02-03T14:55:00.553Z,70
2017-02-03T14:56:09.240Z,70
2017-02-03T14:57:17.955Z,75
2017-02-03T14:58:26.670Z,80
2017-02-03T14:59:35.350Z,80
2017-02-03T15:00:44.051Z,75
2017-02-03T15:01:53.952Z,70
2017-02-03T15:03:03.042Z,65
2017-02-03T15:04:11.748Z,65
2017-02-03T15:05:20.864Z,60
2017-02-03T15:06:29.947Z,55
2017-02-03T15:07:38.648Z,50
2017-02-03T15:08:48.150Z,45
2017-02-03T15:09:56.849Z,40
2017-02-03T15:11:05.551Z,35
2017-02-03T15:12:14.642Z,30
2017-02-03T15:13:23.345Z,30
2017-02-03T15:14:32.056Z,25
2017-02-03T15:15:41.144Z,20
2017-02-03T15:16:50.232Z,20
2017-02-03T15:17:58.951Z,20
2017-02-03T15:19:07.681Z,15
2017-02-03T15:20:16.362Z,15
2017-02-03T15:21:25.073Z,15
2017-02-03T15:22:33.776Z,15
2017-02-03T15:23:42.471Z,10
2017-02-03T15:24:51.577Z,15
2017-02-03T15:26:00.282Z,15
2017-02-03T15:27:09.386Z,10
2017-02-03T15:28:18.081Z,10
2017-02-03T15:29:26.769Z,10
2017-02-03T15:30:35.486Z,10
2017-02-03T15:31:44.982Z,10
2017-02-03T15:32:53.663Z,10
2017-02-03T15:34:02.370Z,10
2017-02-03T15:35:11.073Z,15
2017-02-03T15:36:19.757Z,10
2017-02-03T15:37:28.454Z,10
2017-02-03T15:38:37.163Z,10
2017-02-03T15:39:45.859Z,10
2017-02-03T15:40:54.950Z,10
2017-02-03T15:42:03.642Z,10
2017-02-03T15:43:12.345Z,10
2017-02-03T15:44:21.853Z,5
2017-02-03T15:45:30.929Z,10
2017-02-03T15:46:39.626Z,10
2017-02-03T15:47:48.334Z,10
2017-02-03T15:48:57.417Z,10
2017-02-03T15:50:06.125Z,5
2017-02-03T15:51:14.832Z,5
2017-02-03T15:52:23.528Z,5
2017-02-03T15:53:32.610Z,5
2017-02-03T15:54:41.317Z,5
2017-02-03T15:55:50.409Z,5
2017-02-03T15:56:59.114Z,5
2017-02-03T15:58:07.809Z,5
2017-02-03T15:59:16.539Z,5
2017-02-03T16:00:26.054Z,5
2017-02-03T16:01:34.741Z,5
2017-02-03T16:02:43.828Z,5
2017-02-03T16:03:52.549Z,5
2017-02-03T16:05:01.252Z,5
2017-02-03T16:06:10.325Z,5
2017-02-03T16:07:19.045Z,5
2017-02-03T16:08:28.142Z,5
2017-02-03T16:09:37.232Z,5
2017-02-03T16:10:45.927Z,5
2017-02-03T16:11:54.630Z,5
2017-02-03T16:13:03.342Z,0
2017-02-03T16:14:12.437Z,0
2017-02-03T16:15:21.529Z,0
2017-02-03T16:16:30.647Z,0
2017-02-03T16:17:39.349Z,0
2017-02-03T16:18:48.038Z,0
2017-02-03T16:19:56.746Z,0
2017-02-03T16:21:05.851Z,0
2017-02-03T16:22:14.927Z,0
2017-02-03T16:23:24.035Z,0
2017-02-03T16:24:33.537Z,0
2017-02-03T16:25:42.623Z,0
2017-02-03T16:26:51.724Z,0
2017-02-03T16:28:00.432Z,0
2017-02-03T16:29:09.517Z,0
2017-02-03T16:30:18.211Z,0